Time;durP1;ratioP1;P1;durP2;ratioP2;P2;SDS_P1;SDS_P2;PMS_P1;PMS_P2;Temp;Humidity;BMP_temperature;BMP_pressure;BME280_temperature;BME280_humidity;BME280_pressure;Samples;Min_cycle;Max_cycle;Signal;HPM_P1;HPM_P2
2022/09/17 00:01:37;;;;;;;14.60;5.85;;;24.40;99.90;;;;;;4961914;28;20030;-93
2022/09/17 00:04:05;;;;;;;16.65;6.00;;;24.40;99.90;;;;;;4977943;28;20354;-95
2022/09/17 00:06:36;;;;;;;16.42;5.60;;;24.40;99.90;;;;;;4961608;28;20094;-92
2022/09/17 00:09:06;;;;;;;13.88;5.80;;;24.50;99.90;;;;;;4977996;28;20057;-95
2022/09/17 00:11:36;;;;;;;16.88;5.00;;;24.50;99.90;;;;;;4978156;28;20113;-93
2022/09/17 00:14:04;;;;;;;22.38;6.10;;;24.50;99.90;;;;;;4961654;28;20035;-94
2022/09/17 00:16:34;;;;;;;12.52;5.10;;;24.50;99.90;;;;;;4961723;28;20502;-93
2022/09/17 00:19:03;;;;;;;12.38;4.93;;;24.50;99.90;;;;;;4961685;28;20038;-94
2022/09/17 00:21:30;;;;;;;13.07;5.40;;;24.50;99.90;;;;;;4977673;28;20026;-93
2022/09/17 00:24:05;;;;;;;14.48;5.90;;;24.50;99.90;;;;;;4961468;28;20073;-92
2022/09/17 00:26:35;;;;;;;8.00;5.90;;;24.50;99.90;;;;;;4961848;28;20026;-92
2022/09/17 00:29:05;;;;;;;16.17;6.03;;;24.50;99.90;;;;;;4961601;28;20041;-93
2022/09/17 00:31:33;;;;;;;15.60;6.00;;;24.50;99.90;;;;;;4961642;28;20399;-93
2022/09/17 00:34:00;;;;;;;15.02;5.43;;;24.50;99.90;;;;;;4961875;28;20027;-95
2022/09/17 00:36:27;;;;;;;15.73;6.07;;;24.50;99.90;;;;;;4961550;28;20038;-93
2022/09/17 00:38:57;;;;;;;15.57;5.60;;;24.50;99.90;;;;;;4977557;28;20042;-94
2022/09/17 00:41:27;;;;;;;15.55;5.93;;;24.50;99.90;;;;;;4961472;28;20034;-93
2022/09/17 00:43:57;;;;;;;12.30;5.30;;;24.50;99.90;;;;;;4961471;28;20431;-93
2022/09/17 00:46:35;;;;;;;18.23;6.10;;;24.50;99.90;;;;;;4977606;28;20093;-94
2022/09/17 00:49:17;;;;;;;16.92;4.72;;;24.50;99.90;;;;;;4977751;28;20030;-93
2022/09/17 00:51:56;;;;;;;16.88;5.15;;;24.50;99.90;;;;;;4977556;28;20041;-94
2022/09/17 00:54:24;;;;;;;15.30;4.90;;;24.60;99.90;;;;;;4977453;28;20053;-94
2022/09/17 00:56:52;;;;;;;17.27;5.47;;;24.60;99.90;;;;;;4961355;28;20026;-93
2022/09/17 00:59:21;;;;;;;15.65;5.35;;;24.60;99.90;;;;;;4961111;28;20189;-93
2022/09/17 01:01:51;;;;;;;13.93;5.40;;;24.70;99.90;;;;;;4961281;28;20038;-93
2022/09/17 01:04:24;;;;;;;13.88;5.00;;;24.70;99.90;;;;;;4977303;28;20498;-93
2022/09/17 01:07:12;;;;;;;12.65;4.93;;;24.60;99.90;;;;;;4980629;28;20050;-95
2022/09/17 01:09:53;;;;;;;15.82;5.30;;;24.70;99.90;;;;;;4981168;28;20473;-95
2022/09/17 01:12:50;;;;;;;13.52;4.80;;;24.60;99.90;;;;;;4997508;28;20040;-93
2022/09/17 01:15:51;;;;;;;15.23;5.10;;;24.60;99.90;;;;;;4997383;28;20054;-93
2022/09/17 01:18:55;;;;;;;15.60;4.57;;;24.60;99.90;;;;;;4997212;28;20068;-94
2022/09/17 01:22:07;;;;;;;16.27;4.50;;;24.60;99.90;;;;;;4981166;28;20514;-92
2022/09/17 01:24:47;;;;;;;15.82;4.57;;;24.60;99.90;;;;;;4907013;29;20142;-93
2022/09/17 01:28:01;;;;;;;14.73;4.75;;;24.60;99.90;;;;;;4938529;29;20029;-92
2022/09/17 01:30:58;;;;;;;47.90;9.00;;;24.60;99.90;;;;;;4938317;29;20031;-93
2022/09/17 01:33:52;;;;;;;37.80;7.38;;;24.60;99.90;;;;;;4938782;29;20032;-92
2022/09/17 01:36:57;;;;;;;22.87;6.50;;;24.60;99.90;;;;;;4938591;29;20028;-93
2022/09/17 01:39:30;;;;;;;21.83;6.13;;;24.40;99.90;;;;;;4938278;29;20043;-93
2022/09/17 01:42:15;;;;;;;21.48;5.70;;;24.30;99.90;;;;;;4922732;29;20233;-94
2022/09/17 01:44:59;;;;;;;20.35;5.15;;;24.20;99.90;;;;;;4922390;29;20036;-95
2022/09/17 01:47:51;;;;;;;21.27;5.53;;;24.20;99.90;;;;;;4938332;29;20126;-94
2022/09/17 01:50:29;;;;;;;18.05;5.25;;;24.10;99.90;;;;;;4938024;29;20090;-93
2022/09/17 01:52:58;;;;;;;13.30;5.43;;;23.90;99.90;;;;;;4937678;29;20032;-94
2022/09/17 01:55:31;;;;;;;12.82;5.05;;;23.90;99.90;;;;;;4938139;29;20063;-93
2022/09/17 01:58:21;;;;;;;22.80;6.60;;;23.80;99.90;;;;;;4937802;29;20516;-94
2022/09/17 02:00:54;;;;;;;21.45;7.13;;;23.80;99.90;;;;;;4977624;28;20054;-93
2022/09/17 02:03:29;;;;;;;21.27;6.40;;;23.80;99.90;;;;;;4980095;28;20030;-93
2022/09/17 02:06:20;;;;;;;18.08;6.22;;;23.70;99.90;;;;;;4996473;28;20092;-94
2022/09/17 02:09:00;;;;;;;14.90;6.38;;;23.70;99.90;;;;;;4996356;28;20074;-92
2022/09/17 02:11:27;;;;;;;18.20;6.82;;;23.60;99.90;;;;;;4996304;28;20035;-92
2022/09/17 02:14:04;;;;;;;26.75;6.80;;;23.60;99.90;;;;;;4996115;28;20022;-92
2022/09/17 02:16:35;;;;;;;22.35;7.85;;;23.50;99.90;;;;;;4996257;28;20113;-92
2022/09/17 02:19:15;;;;;;;20.85;7.68;;;23.50;99.90;;;;;;4995202;28;20070;-92
2022/09/17 02:21:53;;;;;;;20.08;7.55;;;23.50;99.90;;;;;;4980129;28;20026;-93
2022/09/17 02:24:26;;;;;;;18.20;7.25;;;23.40;99.90;;;;;;4995972;28;20023;-94
2022/09/17 02:27:33;;;;;;;16.55;6.38;;;23.40;99.90;;;;;;4996119;28;20117;-92
2022/09/17 02:30:00;;;;;;;16.58;7.10;;;23.20;99.90;;;;;;4995802;28;20042;-91
2022/09/17 02:32:36;;;;;;;15.00;6.07;;;23.20;99.90;;;;;;4995845;28;20030;-92
2022/09/17 02:35:05;;;;;;;20.17;7.55;;;23.20;99.90;;;;;;4995944;28;20112;-92
2022/09/17 02:37:37;;;;;;;22.63;7.53;;;23.10;99.90;;;;;;4995780;28;20026;-92
2022/09/17 02:40:05;;;;;;;27.05;8.70;;;23.10;99.90;;;;;;4995807;28;20035;-92
2022/09/17 02:42:58;;;;;;;16.13;8.30;;;23.10;99.90;;;;;;4995767;28;20022;-93
2022/09/17 02:45:37;;;;;;;22.52;8.70;;;23.20;99.90;;;;;;4979385;28;20035;-93
2022/09/17 02:48:52;;;;;;;23.65;8.68;;;23.10;99.90;;;;;;4995709;28;20034;-93
2022/09/17 02:51:51;;;;;;;17.60;8.43;;;23.20;99.90;;;;;;4905235;29;20087;-93
2022/09/17 02:54:28;;;;;;;22.88;9.80;;;23.20;99.90;;;;;;4979252;28;20037;-92
2022/09/17 02:57:13;;;;;;;22.80;10.32;;;23.20;99.90;;;;;;4995554;28;20031;-93
2022/09/17 02:59:56;;;;;;;19.85;9.68;;;23.20;99.90;;;;;;4979150;28;20077;-94
2022/09/17 03:02:46;;;;;;;21.88;9.75;;;23.20;99.90;;;;;;4979248;28;20046;-93
2022/09/17 03:05:22;;;;;;;22.92;9.23;;;23.30;99.90;;;;;;4995175;28;20026;-94
2022/09/17 03:07:55;;;;;;;19.10;8.75;;;23.20;99.90;;;;;;4994785;28;20073;-93
2022/09/17 03:10:23;;;;;;;17.58;8.35;;;23.20;99.90;;;;;;4995162;28;20041;-92
2022/09/17 03:12:50;;;;;;;17.90;9.13;;;23.10;99.90;;;;;;4995091;28;20069;-92
2022/09/17 03:15:20;;;;;;;19.63;10.70;;;23.10;99.90;;;;;;4995140;28;20042;-93
2022/09/17 03:17:46;;;;;;;19.70;8.73;;;23.10;99.90;;;;;;4978879;28;20029;-93
2022/09/17 03:20:14;;;;;;;19.65;8.63;;;23.10;99.90;;;;;;4994808;28;20046;-93
2022/09/17 03:22:42;;;;;;;16.73;7.40;;;23.10;99.90;;;;;;4994875;28;20491;-93
2022/09/17 03:25:10;;;;;;;21.77;8.88;;;23.00;99.90;;;;;;4994872;28;20026;-92
2022/09/17 03:27:37;;;;;;;17.63;8.40;;;23.00;99.90;;;;;;4994915;28;20038;-93
2022/09/17 03:30:05;;;;;;;15.52;9.00;;;23.00;99.90;;;;;;4994029;28;20022;-92
2022/09/17 03:32:32;;;;;;;18.55;8.43;;;23.00;99.90;;;;;;4995200;28;20022;-93
2022/09/17 03:34:59;;;;;;;15.27;8.02;;;23.00;99.90;;;;;;4994909;28;20022;-92
2022/09/17 03:37:25;;;;;;;21.27;7.80;;;23.00;99.90;;;;;;4994731;28;20084;-94
2022/09/17 03:39:58;;;;;;;18.30;7.47;;;23.00;99.90;;;;;;4994530;28;20038;-93
2022/09/17 03:42:24;;;;;;;15.10;7.57;;;23.00;99.90;;;;;;4994618;28;20058;-92
2022/09/17 03:44:51;;;;;;;25.33;7.72;;;23.00;99.90;;;;;;4994355;28;20023;-94
2022/09/17 03:47:17;;;;;;;18.75;7.38;;;23.00;99.90;;;;;;4994536;28;20034;-93
2022/09/17 03:49:44;;;;;;;20.88;7.97;;;23.10;99.90;;;;;;4994566;28;20113;-92
2022/09/17 03:52:10;;;;;;;21.45;9.43;;;23.20;99.90;;;;;;4978260;28;20076;-94
2022/09/17 03:54:37;;;;;;;21.10;9.20;;;23.30;99.90;;;;;;4994608;28;20034;-92
2022/09/17 03:57:06;;;;;;;26.52;9.88;;;23.40;99.90;;;;;;4994299;28;20046;-91
2022/09/17 03:59:33;;;;;;;19.77;10.15;;;23.50;99.90;;;;;;4994231;28;20046;-92
2022/09/17 04:02:00;;;;;;;24.67;10.02;;;23.60;99.90;;;;;;4978068;28;20057;-91
2022/09/17 04:04:29;;;;;;;23.58;11.93;;;23.60;99.90;;;;;;4994217;28;20027;-93
2022/09/17 04:06:56;;;;;;;26.20;12.40;;;23.80;99.90;;;;;;4977747;28;20039;-91
2022/09/17 04:09:23;;;;;;;26.95;13.82;;;23.90;99.90;;;;;;4977983;28;20038;-92
2022/09/17 04:11:49;;;;;;;28.55;13.68;;;24.20;99.90;;;;;;4977798;28;20028;-91
2022/09/17 04:14:15;;;;;;;31.95;15.57;;;24.30;99.90;;;;;;4994103;28;20555;-92
2022/09/17 04:16:42;;;;;;;29.85;15.27;;;24.40;99.90;;;;;;4977801;28;20082;-91
2022/09/17 04:19:08;;;;;;;31.48;16.10;;;24.60;99.90;;;;;;4977786;28;20045;-93
2022/09/17 04:21:35;;;;;;;24.65;15.65;;;24.70;99.90;;;;;;4994131;28;20037;-92
2022/09/17 04:24:05;;;;;;;38.10;17.25;;;24.70;99.90;;;;;;4977872;28;20027;-91
2022/09/17 04:26:32;;;;;;;34.35;16.45;;;24.80;99.90;;;;;;4993802;28;20034;-94
2022/09/17 04:28:59;;;;;;;28.67;16.13;;;24.90;99.90;;;;;;4977625;28;20491;-92
2022/09/17 04:31:27;;;;;;;26.55;17.40;;;24.90;99.90;;;;;;4977592;28;20096;-92
2022/09/17 04:33:53;;;;;;;24.40;15.93;;;24.90;99.90;;;;;;4993803;28;20022;-91
2022/09/17 04:36:20;;;;;;;27.30;15.40;;;24.90;99.90;;;;;;4977627;28;20026;-93
2022/09/17 04:38:49;;;;;;;29.00;16.85;;;24.90;99.90;;;;;;4993623;28;20089;-92
2022/09/17 04:41:28;;;;;;;31.30;17.92;;;25.00;99.90;;;;;;4977465;28;20030;-93
2022/09/17 04:43:57;;;;;;;31.27;17.80;;;25.00;99.90;;;;;;4993658;28;20029;-93
2022/09/17 04:46:30;;;;;;;25.73;16.35;;;25.10;99.90;;;;;;4977550;28;20058;-91
2022/09/17 04:48:56;;;;;;;30.50;15.73;;;25.10;99.90;;;;;;4993688;28;20352;-91
2022/09/17 04:51:23;;;;;;;25.50;15.55;;;25.20;99.90;;;;;;4977427;28;20100;-91
2022/09/17 04:53:49;;;;;;;36.80;16.35;;;25.20;99.90;;;;;;4993642;28;20476;-91
2022/09/17 04:56:16;;;;;;;28.48;13.30;;;25.40;99.90;;;;;;4977672;28;20023;-93
2022/09/17 04:58:43;;;;;;;28.08;13.23;;;25.40;99.90;;;;;;4993652;28;20030;-93
2022/09/17 05:01:09;;;;;;;25.90;11.77;;;25.40;99.90;;;;;;4977159;28;20060;-94
2022/09/17 05:03:36;;;;;;;27.73;13.50;;;25.50;99.90;;;;;;4993516;28;20097;-92
2022/09/17 05:06:02;;;;;;;32.65;12.95;;;25.50;99.90;;;;;;4977391;28;20026;-91
2022/09/17 05:08:32;;;;;;;31.98;15.38;;;25.50;99.90;;;;;;4993308;28;20046;-91
2022/09/17 05:11:02;;;;;;;22.15;12.00;;;25.60;99.90;;;;;;4977218;28;20030;-94
2022/09/17 05:13:29;;;;;;;31.70;13.32;;;25.60;99.90;;;;;;4993504;28;20033;-94
2022/09/17 05:15:55;;;;;;;40.20;16.75;;;25.60;99.90;;;;;;4977296;28;20023;-93
2022/09/17 05:18:22;;;;;;;24.70;12.50;;;25.70;99.90;;;;;;4977190;28;20046;-92
2022/09/17 05:20:49;;;;;;;24.02;13.32;;;25.70;99.90;;;;;;4976964;28;20038;-93
2022/09/17 05:23:16;;;;;;;25.10;12.90;;;25.80;99.90;;;;;;4993312;28;20056;-93
2022/09/17 05:25:43;;;;;;;22.50;12.32;;;25.90;99.90;;;;;;4977546;28;20034;-94
2022/09/17 05:28:10;;;;;;;27.02;14.55;;;26.00;99.90;;;;;;4977097;28;20030;-92
2022/09/17 05:30:36;;;;;;;21.95;13.48;;;26.10;99.90;;;;;;4993449;28;20085;-92
2022/09/17 05:33:06;;;;;;;28.83;15.52;;;26.20;99.90;;;;;;4977211;28;20022;-91
2022/09/17 05:35:34;;;;;;;25.50;14.00;;;26.20;99.90;;;;;;4977166;28;20121;-91
2022/09/17 05:38:04;;;;;;;31.92;15.10;;;26.20;99.90;;;;;;4977113;28;20082;-93
2022/09/17 05:40:31;;;;;;;30.55;15.10;;;26.10;99.90;;;;;;4993005;28;20058;-92
2022/09/17 05:43:01;;;;;;;34.42;18.35;;;26.10;99.90;;;;;;4977061;28;20105;-91
2022/09/17 05:45:29;;;;;;;28.33;17.15;;;26.10;99.90;;;;;;4993086;28;20034;-93
2022/09/17 05:47:57;;;;;;;27.00;14.88;;;26.10;99.90;;;;;;4977124;28;20032;-92
2022/09/17 05:50:28;;;;;;;30.90;16.73;;;26.10;99.90;;;;;;4995624;28;20102;-92
2022/09/17 05:52:55;;;;;;;25.60;15.32;;;26.10;99.90;;;;;;4979622;28;20113;-93
2022/09/17 05:55:22;;;;;;;25.90;14.55;;;26.00;99.90;;;;;;4981639;28;20511;-94
2022/09/17 05:57:50;;;;;;;25.02;14.10;;;26.00;99.90;;;;;;4981785;28;20035;-94
2022/09/17 06:00:17;;;;;;;29.63;14.85;;;26.00;99.90;;;;;;4982655;28;20256;-94
2022/09/17 06:02:44;;;;;;;18.63;11.75;;;26.00;99.90;;;;;;4982293;28;20054;-92
2022/09/17 06:05:17;;;;;;;25.73;13.15;;;25.90;99.90;;;;;;5001027;28;20031;-94
2022/09/17 06:07:43;;;;;;;27.75;11.85;;;25.90;99.90;;;;;;4978268;28;20042;-92
2022/09/17 06:10:09;;;;;;;18.98;12.23;;;25.90;99.90;;;;;;4980107;28;20464;-92
2022/09/17 06:12:36;;;;;;;22.67;11.65;;;26.00;99.90;;;;;;4980221;28;20480;-90
2022/09/17 06:15:06;;;;;;;25.05;10.48;;;26.10;99.90;;;;;;4979976;28;20027;-88
2022/09/17 06:17:34;;;;;;;20.58;9.93;;;26.20;99.90;;;;;;4997817;28;20105;-91
2022/09/17 06:20:01;;;;;;;18.75;8.00;;;26.40;99.90;;;;;;4997533;28;20040;-92
2022/09/17 06:22:28;;;;;;;19.17;7.63;;;27.00;99.90;;;;;;4998362;28;20473;-91
2022/09/17 06:24:54;;;;;;;17.17;6.40;;;27.40;99.90;;;;;;4997177;28;20030;-90
2022/09/17 06:27:21;;;;;;;19.55;8.38;;;27.50;99.90;;;;;;4997268;28;20032;-91
2022/09/17 06:29:47;;;;;;;13.73;6.57;;;27.70;99.90;;;;;;4996858;28;20480;-90
2022/09/17 06:32:15;;;;;;;14.55;6.53;;;28.00;99.90;;;;;;4996821;28;20507;-91
2022/09/17 06:34:42;;;;;;;13.88;6.03;;;28.20;99.90;;;;;;4997448;28;20408;-90
2022/09/17 06:37:09;;;;;;;14.35;7.63;;;27.70;99.90;;;;;;4996925;28;20030;-91
2022/09/17 06:39:35;;;;;;;17.48;8.00;;;27.50;99.90;;;;;;4997781;28;20034;-91
2022/09/17 06:42:08;;;;;;;15.73;8.20;;;27.50;99.90;;;;;;4999303;28;20026;-94
2022/09/17 06:59:55;;;;;;;14.80;7.30;;;26.60;99.90;;;;;;5953783;23;20916;-92
2022/09/17 07:02:22;;;;;;;14.85;8.40;;;27.00;99.90;;;;;;4980294;28;20038;-92
2022/09/17 07:04:50;;;;;;;22.27;8.95;;;27.40;99.90;;;;;;4966411;28;20480;-95
2022/09/17 07:07:24;;;;;;;20.00;8.50;;;27.80;99.90;;;;;;4966417;28;20054;-93
2022/09/17 07:09:54;;;;;;;16.65;8.45;;;27.60;99.90;;;;;;4967364;28;20034;-93
2022/09/17 07:12:21;;;;;;;21.48;8.07;;;27.50;99.90;;;;;;4965316;28;20030;-94
2022/09/17 07:14:48;;;;;;;19.23;7.63;;;27.60;99.90;;;;;;4965836;28;20027;-91
2022/09/17 07:17:15;;;;;;;17.83;6.53;;;27.60;99.90;;;;;;4965510;28;20026;-92
2022/09/17 07:19:42;;;;;;;17.85;6.47;;;27.50;99.90;;;;;;4964975;28;20487;-94
2022/09/17 07:22:08;;;;;;;12.80;6.68;;;27.50;99.90;;;;;;4963642;28;20052;-93
2022/09/17 07:24:35;;;;;;;16.15;6.75;;;27.20;99.90;;;;;;4973203;28;20033;-93
2022/09/17 07:27:01;;;;;;;18.42;7.38;;;27.00;99.90;;;;;;4979104;28;20111;-95
2022/09/17 07:29:28;;;;;;;18.00;7.38;;;26.90;99.90;;;;;;4965543;28;20034;-93
2022/09/17 07:31:54;;;;;;;17.80;8.40;;;26.80;99.90;;;;;;4965404;28;20034;-93
2022/09/17 07:42:34;;;;;;;16.02;8.02;;;26.60;99.90;;;;;;5412095;23;20025;-94
2022/09/17 07:45:16;;;;;;;17.00;7.57;;;26.70;99.90;;;;;;4998264;23;20064;-94
2022/09/17 07:47:53;;;;;;;19.13;8.52;;;26.80;99.90;;;;;;4973976;28;20043;-96
2022/09/17 07:50:27;;;;;;;35.55;9.82;;;26.80;99.90;;;;;;4959965;28;20049;-92
2022/09/17 07:52:54;;;;;;;51.20;14.15;;;26.90;99.90;;;;;;4960821;28;20047;-92
2022/09/17 07:55:22;;;;;;;43.00;11.80;;;27.00;99.90;;;;;;4978232;28;20026;-93
2022/09/17 07:57:52;;;;;;;25.55;8.43;;;27.00;99.90;;;;;;4978589;28;20034;-93
2022/09/17 08:00:19;;;;;;;34.03;11.50;;;27.00;99.90;;;;;;4961860;28;20042;-92
2022/09/17 08:02:51;;;;;;;39.10;12.07;;;26.90;99.90;;;;;;4977922;28;20034;-93
2022/09/17 08:05:18;;;;;;;46.47;12.63;;;26.90;99.90;;;;;;4978977;28;20034;-93
2022/09/17 08:07:52;;;;;;;28.20;9.43;;;26.80;99.90;;;;;;4978016;28;20030;-92
2022/09/17 08:10:21;;;;;;;17.27;6.43;;;26.70;99.90;;;;;;4963883;28;20046;-95
2022/09/17 08:12:57;;;;;;;26.88;6.78;;;26.70;99.90;;;;;;4962701;28;20484;-95
2022/09/17 08:15:25;;;;;;;22.48;6.97;;;26.10;99.90;;;;;;4964891;28;20026;-92
2022/09/17 08:34:06;;;;;;;25.60;9.07;;;25.50;99.90;;;;;;5847035;23;20074;-96
2022/09/17 09:15:47;;;;;;;19.70;7.72;;;25.30;99.90;;;;;;5136651;23;20050;-95
2022/09/17 09:18:21;;;;;;;15.88;7.90;;;25.20;99.90;;;;;;4962104;28;20122;-91
2022/09/17 09:20:55;;;;;;;19.52;8.77;;;25.20;99.90;;;;;;4961845;28;20069;-90
2022/09/17 09:23:29;;;;;;;24.45;8.95;;;25.30;99.90;;;;;;4977606;28;20030;-91
2022/09/17 09:26:16;;;;;;;14.13;7.13;;;25.30;99.90;;;;;;4961265;28;20035;-90
2022/09/17 09:29:04;;;;;;;16.63;7.22;;;25.50;99.90;;;;;;4963014;28;20492;-91
2022/09/17 09:31:34;;;;;;;20.88;7.85;;;25.90;99.90;;;;;;4965368;28;20447;-93
2022/09/17 09:34:03;;;;;;;19.05;7.18;;;26.60;99.90;;;;;;4965056;28;20121;-91
2022/09/17 09:36:31;;;;;;;12.60;5.30;;;27.30;99.90;;;;;;4981186;28;20027;-94
2022/09/17 09:39:23;;;;;;;14.95;6.15;;;27.70;99.90;;;;;;4965193;28;20088;-89
2022/09/17 09:42:00;;;;;;;16.55;6.75;;;28.20;99.90;;;;;;4964651;28;20034;-91
2022/09/17 09:44:26;;;;;;;12.32;6.32;;;28.60;99.90;;;;;;4980783;28;20038;-93
2022/09/17 09:47:12;;;;;;;13.60;7.03;;;28.70;99.90;;;;;;4965388;28;20077;-90
2022/09/17 09:49:57;;;;;;;18.10;6.80;;;28.90;99.90;;;;;;4964774;28;20030;-90
2022/09/17 09:52:35;;;;;;;13.98;7.15;;;29.00;99.90;;;;;;4980817;28;20057;-89
2022/09/17 09:55:39;;;;;;;10.50;7.43;;;29.00;99.90;;;;;;4964903;28;20054;-93
2022/09/17 09:58:30;;;;;;;11.93;7.65;;;29.00;99.90;;;;;;4964877;28;20034;-93
2022/09/17 10:00:57;;;;;;;13.85;9.35;;;29.00;99.90;;;;;;4980416;28;20042;-91
2022/09/17 10:03:26;;;;;;;15.55;9.15;;;29.00;99.90;;;;;;4964746;28;20034;-91
2022/09/17 10:05:59;;;;;;;9.90;8.93;;;29.30;99.90;;;;;;4964521;28;20034;-90
2022/09/17 10:08:29;;;;;;;8.63;7.72;;;29.50;99.90;;;;;;4964425;28;20027;-90
2022/09/17 10:11:00;;;;;;;12.50;7.05;;;29.60;99.90;;;;;;4964210;28;20062;-90
2022/09/17 10:13:34;;;;;;;10.93;7.50;;;29.70;99.90;;;;;;4964329;28;20033;-93
2022/09/17 10:16:29;;;;;;;8.10;7.38;;;29.40;99.90;;;;;;4994215;28;20049;-93
2022/09/17 10:19:05;;;;;;;9.00;8.10;;;28.80;99.90;;;;;;4978998;28;20036;-93
2022/09/17 10:21:41;;;;;;;9.30;8.38;;;28.60;99.90;;;;;;4980631;28;20048;-93
2022/09/17 10:24:24;;;;;;;9.48;8.90;;;28.20;99.90;;;;;;4996327;28;20077;-92
2022/09/17 10:27:00;;;;;;;10.20;9.52;;;28.00;99.90;;;;;;4996151;28;20042;-92
2022/09/17 10:29:27;;;;;;;9.65;8.90;;;27.70;99.90;;;;;;4996571;28;20026;-93
2022/09/17 10:31:55;;;;;;;9.40;8.15;;;27.50;99.90;;;;;;4996346;28;20022;-92
2022/09/17 10:34:25;;;;;;;9.02;8.55;;;27.50;99.90;;;;;;5001542;28;20030;-92
2022/09/17 10:36:54;;;;;;;8.82;8.00;;;27.40;99.90;;;;;;5011299;28;20029;-92
2022/09/17 10:39:33;;;;;;;8.75;7.88;;;27.30;99.90;;;;;;5001402;28;20046;-92
2022/09/17 10:42:02;;;;;;;8.55;7.82;;;27.20;99.90;;;;;;4980511;28;20034;-91
2022/09/17 10:44:34;;;;;;;9.43;7.68;;;27.20;99.90;;;;;;4980413;28;20022;-90
2022/09/17 10:47:06;;;;;;;8.25;7.43;;;27.20;99.90;;;;;;4996698;28;20030;-93
2022/09/17 10:49:54;;;;;;;11.43;6.95;;;27.20;99.90;;;;;;4980339;28;20086;-92
2022/09/17 10:52:34;;;;;;;8.20;7.18;;;27.30;99.90;;;;;;4979928;28;20042;-92
2022/09/17 10:55:23;;;;;;;7.10;6.40;;;27.40;99.90;;;;;;4995598;28;20491;-92
2022/09/17 10:58:07;;;;;;;6.85;6.28;;;27.40;99.90;;;;;;4979384;28;20068;-91
2022/09/17 11:01:10;;;;;;;10.05;6.43;;;27.60;99.90;;;;;;4979280;28;20038;-90
2022/09/17 11:03:50;;;;;;;9.88;7.68;;;27.70;99.90;;;;;;4979098;28;20026;-90
2022/09/17 11:06:37;;;;;;;11.15;6.60;;;27.60;99.90;;;;;;4979241;28;20108;-90
2022/09/17 11:09:32;;;;;;;9.95;6.35;;;27.60;99.90;;;;;;4979379;28;20100;-89
2022/09/17 11:12:47;;;;;;;8.75;6.15;;;27.40;99.90;;;;;;4979628;28;20037;-92
2022/09/17 11:15:31;;;;;;;12.43;5.30;;;27.20;99.90;;;;;;4904823;29;20044;-95
2022/09/17 11:18:10;;;;;;;9.95;5.30;;;27.00;99.90;;;;;;5048185;23;20136;-92
2022/09/17 11:21:10;;;;;;;11.77;4.88;;;26.80;99.90;;;;;;5003617;28;20038;-95
2022/09/17 11:24:17;;;;;;;8.73;4.20;;;26.60;99.90;;;;;;5301177;23;20036;-93
2022/09/17 11:27:21;;;;;;;7.88;4.20;;;26.30;99.90;;;;;;5459954;23;20112;-93
2022/09/17 11:33:37;;;;;;;7.88;3.83;;;26.10;99.90;;;;;;4990976;28;20132;-89
2022/09/17 11:36:15;;;;;;;7.18;4.40;;;26.10;99.90;;;;;;4953485;28;20065;-90
2022/09/17 11:38:50;;;;;;;9.52;4.10;;;26.30;99.90;;;;;;4958297;28;20484;-92
2022/09/17 11:41:26;;;;;;;6.43;4.30;;;26.50;99.90;;;;;;4959225;28;20050;-91
2022/09/17 11:44:34;;;;;;;11.90;5.18;;;26.80;99.90;;;;;;4951075;28;20119;-92
2022/09/17 11:47:16;;;;;;;10.70;6.00;;;27.20;99.90;;;;;;4948284;28;20035;-92
2022/09/17 11:49:56;;;;;;;7.63;6.93;;;27.40;99.90;;;;;;4937661;28;20032;-89
2022/09/17 11:52:29;;;;;;;10.93;7.85;;;27.60;99.90;;;;;;4946345;28;20031;-91
2022/09/17 11:55:17;;;;;;;13.10;7.50;;;27.70;99.90;;;;;;4959176;28;20022;-91
2022/09/17 11:57:44;;;;;;;9.95;7.55;;;27.70;99.90;;;;;;4955924;28;20030;-91
2022/09/17 12:00:22;;;;;;;8.98;8.30;;;27.80;99.90;;;;;;4956971;28;20112;-90
2022/09/17 12:03:00;;;;;;;9.95;8.93;;;27.90;99.90;;;;;;4940655;29;20117;-91
2022/09/17 12:05:38;;;;;;;10.00;9.30;;;27.90;99.90;;;;;;4950254;28;20416;-89
2022/09/17 12:08:13;;;;;;;11.05;9.98;;;28.00;99.90;;;;;;4943896;28;20023;-89
2022/09/17 12:10:42;;;;;;;10.95;10.27;;;28.10;99.90;;;;;;4947788;29;20027;-89
2022/09/17 12:13:45;;;;;;;11.93;10.90;;;28.20;99.90;;;;;;4953274;28;20026;-89
2022/09/17 12:16:21;;;;;;;11.02;10.40;;;28.30;99.90;;;;;;4923070;28;20047;-92
2022/09/17 12:18:51;;;;;;;12.13;11.02;;;28.30;99.90;;;;;;4949248;28;20125;-91
2022/09/17 12:21:36;;;;;;;11.05;10.15;;;28.40;99.90;;;;;;4947576;28;20081;-90
2022/09/17 12:24:27;;;;;;;11.85;11.00;;;28.60;99.90;;;;;;4955234;28;20534;-89
2022/09/17 12:27:17;;;;;;;13.20;11.20;;;28.60;99.90;;;;;;4951720;28;20023;-90
2022/09/17 12:30:24;;;;;;;12.70;11.80;;;28.50;99.90;;;;;;4952790;28;20066;-89
2022/09/17 12:33:15;;;;;;;12.15;11.35;;;28.50;99.90;;;;;;4954106;28;20405;-92
2022/09/17 12:35:49;;;;;;;12.68;11.70;;;28.40;99.90;;;;;;4954844;28;21255;-91
2022/09/17 12:39:01;;;;;;;11.98;11.05;;;28.50;99.90;;;;;;4967303;28;20113;-89
2022/09/17 12:41:51;;;;;;;12.88;11.77;;;28.50;99.90;;;;;;4950643;28;20050;-90
2022/09/17 12:44:55;;;;;;;12.57;11.57;;;28.50;99.90;;;;;;4949265;28;20049;-91
2022/09/17 12:47:51;;;;;;;13.35;12.30;;;28.40;99.90;;;;;;4961533;28;20097;-90
2022/09/17 12:50:33;;;;;;;13.18;12.00;;;28.40;99.90;;;;;;4961460;28;20037;-91
2022/09/17 12:53:34;;;;;;;13.38;12.38;;;28.60;99.90;;;;;;4961448;28;20035;-90
2022/09/17 12:56:29;;;;;;;13.20;12.05;;;28.70;99.90;;;;;;4957123;28;20042;-91
2022/09/17 12:58:56;;;;;;;12.60;11.70;;;28.80;99.90;;;;;;4961456;28;20081;-91
2022/09/17 13:01:43;;;;;;;12.75;11.65;;;28.70;99.90;;;;;;4961234;28;20037;-92
2022/09/17 13:04:28;;;;;;;13.48;12.57;;;28.80;99.90;;;;;;4965092;28;20077;-93
2022/09/17 13:07:14;;;;;;;13.27;12.32;;;28.90;99.90;;;;;;4965167;28;20030;-91
2022/09/17 13:09:59;;;;;;;13.60;12.60;;;29.40;99.90;;;;;;4965208;28;20030;-90
2022/09/17 13:12:32;;;;;;;13.35;12.57;;;29.90;99.90;;;;;;4966096;28;20030;-92
2022/09/17 13:15:35;;;;;;;13.98;13.00;;;29.90;99.90;;;;;;4965060;28;20038;-93
2022/09/17 13:18:13;;;;;;;13.75;12.65;;;30.10;99.90;;;;;;4965341;28;20031;-94
2022/09/17 13:20:54;;;;;;;13.57;12.60;;;30.00;99.90;;;;;;4965194;28;20038;-92
2022/09/17 13:23:45;;;;;;;13.55;12.65;;;30.00;99.90;;;;;;4964694;28;20514;-91
2022/09/17 13:26:32;;;;;;;14.10;12.80;;;29.90;99.90;;;;;;4965758;28;20400;-93
2022/09/17 13:28:58;;;;;;;14.00;12.40;;;29.80;99.90;;;;;;4961566;28;20088;-93
2022/09/17 13:31:36;;;;;;;13.80;12.45;;;29.70;99.90;;;;;;4964599;28;20039;-91
2022/09/17 13:34:24;;;;;;;13.32;12.40;;;29.70;99.90;;;;;;4965782;28;20504;-91
2022/09/17 13:37:05;;;;;;;13.88;12.57;;;29.60;99.90;;;;;;4964419;28;20077;-92
2022/09/17 13:39:39;;;;;;;13.30;12.30;;;29.60;99.90;;;;;;4964403;28;20389;-91
2022/09/17 13:42:19;;;;;;;13.88;12.60;;;29.50;99.90;;;;;;4964779;28;20041;-91
2022/09/17 13:45:03;;;;;;;13.60;12.55;;;29.50;99.90;;;;;;4964836;28;20092;-95
2022/09/17 13:47:32;;;;;;;13.90;12.75;;;29.60;99.90;;;;;;5105010;23;20498;-94
2022/09/17 13:50:21;;;;;;;14.25;13.02;;;29.60;99.90;;;;;;4983671;28;20030;-96
2022/09/17 13:52:52;;;;;;;14.20;13.05;;;29.60;99.90;;;;;;4984796;28;20062;-94
2022/09/17 13:56:14;;;;;;;13.93;12.70;;;29.70;99.90;;;;;;4981165;28;20492;-94
2022/09/17 13:58:40;;;;;;;14.57;13.20;;;29.60;99.90;;;;;;4900286;29;20029;-95
2022/09/17 14:01:13;;;;;;;14.52;13.38;;;29.60;99.90;;;;;;4870242;29;20045;-95
2022/09/17 14:03:44;;;;;;;14.77;13.45;;;29.60;99.90;;;;;;4946757;23;20057;-95
2022/09/17 14:06:23;;;;;;;14.63;13.27;;;29.50;99.90;;;;;;4981405;28;20041;-96
2022/09/17 14:08:59;;;;;;;14.55;13.27;;;29.60;99.90;;;;;;4985900;28;20109;-96
2022/09/17 14:11:27;;;;;;;14.30;13.07;;;29.50;99.90;;;;;;4980674;28;20030;-92
2022/09/17 14:14:14;;;;;;;14.52;13.02;;;29.40;99.90;;;;;;4979587;28;20030;-93
2022/09/17 14:16:47;;;;;;;16.00;13.75;;;29.50;99.90;;;;;;4980327;28;20475;-93
2022/09/17 14:19:22;;;;;;;14.70;13.55;;;29.60;99.90;;;;;;4980121;28;20030;-91
2022/09/17 14:22:23;;;;;;;;;;;;;;;;;;;;;
2022/09/17 14:24:57;;;;;;;14.82;13.55;;;29.50;99.90;;;;;;4981401;28;20031;-93
2022/09/17 14:27:50;;;;;;;14.07;12.85;;;29.40;99.90;;;;;;4980897;28;20121;-93
2022/09/17 14:30:30;;;;;;;14.25;13.20;;;29.40;99.90;;;;;;4963221;28;20030;-91
2022/09/17 14:33:17;;;;;;;14.23;13.02;;;29.20;99.90;;;;;;4979825;28;20102;-92
2022/09/17 14:35:50;;;;;;;13.40;12.48;;;29.10;99.90;;;;;;4980906;28;20034;-91
2022/09/17 14:38:27;;;;;;;14.05;13.05;;;29.20;99.90;;;;;;4979460;28;20050;-91
2022/09/17 14:41:02;;;;;;;15.05;13.15;;;29.30;99.90;;;;;;4979396;28;20039;-93
2022/09/17 14:43:48;;;;;;;14.65;13.18;;;29.30;99.90;;;;;;4979005;28;20063;-91